Time;durP1;ratioP1;P1;durP2;ratioP2;P2;SDS_P1;SDS_P2;PMS_P1;PMS_P2;Temp;Humidity;BMP_temperature;BMP_pressure;BME280_temperature;BME280_humidity;BME280_pressure;Samples;Min_cycle;Max_cycle;Signal;HPM_P1;HPM_P2
2021/05/31 00:01:45;;;;;;;50.72;21.52;;;14.60;60.90;;;;;;5046196;28;20045;-67
2021/05/31 00:04:10;;;;;;;46.35;20.98;;;14.60;61.00;;;;;;5046511;28;20033;-67
2021/05/31 00:06:51;;;;;;;47.75;21.13;;;14.60;61.10;;;;;;5043596;28;20368;-67
2021/05/31 00:09:16;;;;;;;54.88;22.08;;;14.50;61.00;;;;;;5044640;28;20040;-67
2021/05/31 00:11:42;;;;;;;46.08;20.63;;;14.50;61.00;;;;;;5045869;28;20083;-67
2021/05/31 00:14:08;;;;;;;51.83;21.48;;;14.50;61.00;;;;;;5052722;28;20033;-67
2021/05/31 00:16:36;;;;;;;47.78;21.77;;;14.50;61.00;;;;;;5048576;28;20597;-66
2021/05/31 00:19:03;;;;;;;42.90;21.20;;;14.40;61.00;;;;;;5044137;28;20040;-68
2021/05/31 00:21:29;;;;;;;48.08;20.30;;;14.40;61.10;;;;;;5046281;28;20372;-67
2021/05/31 00:23:57;;;;;;;56.97;20.08;;;14.30;61.20;;;;;;5048506;28;20126;-67
2021/05/31 00:26:27;;;;;;;43.33;18.65;;;14.30;61.10;;;;;;5050211;28;20037;-67
2021/05/31 00:28:55;;;;;;;43.67;20.15;;;14.30;61.10;;;;;;5047868;28;20051;-67
2021/05/31 00:31:20;;;;;;;51.42;21.48;;;14.20;61.20;;;;;;5048080;28;20041;-67
2021/05/31 00:33:46;;;;;;;46.10;19.63;;;14.20;61.20;;;;;;5053524;28;20036;-67
2021/05/31 00:36:14;;;;;;;62.60;21.63;;;14.20;61.20;;;;;;5050947;28;20044;-67
2021/05/31 00:38:42;;;;;;;52.20;19.75;;;14.10;61.20;;;;;;5048136;28;20050;-66
2021/05/31 00:41:11;;;;;;;46.72;21.45;;;14.10;61.30;;;;;;5048034;28;20040;-67
2021/05/31 00:43:37;;;;;;;52.13;21.75;;;14.10;61.30;;;;;;5051051;28;20032;-66
2021/05/31 00:46:04;;;;;;;54.00;20.98;;;14.10;61.30;;;;;;5045479;28;20036;-67
2021/05/31 00:48:30;;;;;;;53.65;20.85;;;14.10;61.40;;;;;;5053744;28;20033;-67
2021/05/31 00:51:02;;;;;;;47.30;20.50;;;14.10;61.40;;;;;;5042875;28;20063;-67
2021/05/31 00:53:29;;;;;;;51.60;20.25;;;14.10;61.40;;;;;;5049997;28;20048;-67
2021/05/31 00:55:57;;;;;;;48.38;21.48;;;14.00;61.40;;;;;;5048111;28;20330;-67
2021/05/31 00:58:27;;;;;;;57.35;20.83;;;14.00;61.40;;;;;;5046989;28;20048;-67
2021/05/31 01:00:55;;;;;;;39.75;18.48;;;14.00;61.60;;;;;;5032931;28;20078;-67
2021/05/31 01:03:23;;;;;;;31.77;15.80;;;14.00;61.60;;;;;;5046595;28;20051;-67
2021/05/31 01:05:54;;;;;;;35.22;14.45;;;13.90;61.50;;;;;;5043883;28;20171;-67
2021/05/31 01:08:38;;;;;;;34.13;15.98;;;13.90;61.40;;;;;;5045500;28;20047;-67
2021/05/31 01:11:21;;;;;;;32.97;13.80;;;13.90;61.40;;;;;;5040829;28;20525;-67
2021/05/31 01:14:07;;;;;;;31.83;16.23;;;13.80;61.30;;;;;;5046576;28;20051;-67
2021/05/31 01:16:51;;;;;;;37.90;17.95;;;13.70;61.30;;;;;;5044965;28;20043;-67
2021/05/31 01:19:42;;;;;;;44.53;18.95;;;13.70;61.30;;;;;;5040140;28;20047;-67
2021/05/31 01:22:11;;;;;;;42.00;19.83;;;13.70;61.40;;;;;;5043615;28;20055;-67
2021/05/31 01:25:25;;;;;;;44.65;18.77;;;13.60;61.50;;;;;;5043667;28;20039;-67
2021/05/31 01:28:14;;;;;;;37.72;19.52;;;13.60;61.60;;;;;;5038478;28;20170;-67
2021/05/31 01:30:48;;;;;;;52.55;20.85;;;13.60;61.60;;;;;;5041519;28;20044;-66
2021/05/31 01:33:17;;;;;;;46.33;19.95;;;13.50;61.60;;;;;;5047905;28;20044;-67
2021/05/31 01:35:46;;;;;;;45.55;21.92;;;13.60;61.70;;;;;;5048304;28;20066;-67
2021/05/31 01:38:22;;;;;;;49.35;21.25;;;13.50;61.80;;;;;;5046623;28;20037;-67
2021/05/31 01:40:53;;;;;;;40.47;18.98;;;13.50;61.90;;;;;;5044453;28;20658;-67
2021/05/31 01:43:20;;;;;;;36.40;16.33;;;13.60;62.00;;;;;;5052071;28;20140;-67
2021/05/31 01:45:46;;;;;;;38.20;17.10;;;13.60;62.10;;;;;;5047381;28;20059;-66
2021/05/31 01:48:15;;;;;;;34.25;14.30;;;13.60;62.10;;;;;;5052708;28;20486;-67
2021/05/31 01:50:42;;;;;;;33.53;16.75;;;13.60;62.10;;;;;;5046992;28;20934;-67
2021/05/31 01:53:10;;;;;;;41.20;19.27;;;13.60;62.10;;;;;;5048856;28;20033;-67
2021/05/31 01:55:38;;;;;;;46.25;20.48;;;13.70;62.20;;;;;;5044997;28;20101;-67
2021/05/31 01:58:07;;;;;;;54.47;20.48;;;13.70;62.40;;;;;;5048837;28;20033;-67
2021/05/31 02:00:33;;;;;;;44.13;19.95;;;13.80;62.50;;;;;;5041922;28;20470;-66
2021/05/31 02:03:06;;;;;;;50.50;20.75;;;13.90;62.50;;;;;;5052621;28;20040;-66
2021/05/31 02:05:34;;;;;;;48.08;20.27;;;14.00;62.60;;;;;;5051434;28;20039;-67
2021/05/31 02:08:03;;;;;;;56.72;22.02;;;14.00;62.60;;;;;;5051296;28;20064;-67
2021/05/31 02:10:31;;;;;;;73.53;27.00;;;14.10;62.70;;;;;;5047658;28;20052;-67
2021/05/31 02:13:03;;;;;;;76.75;26.05;;;14.10;62.70;;;;;;5052197;28;20113;-67
2021/05/31 02:16:00;;;;;;;72.13;25.92;;;14.20;63.00;;;;;;5049990;28;20044;-67
2021/05/31 02:18:43;;;;;;;73.50;25.98;;;14.30;63.00;;;;;;5053164;28;20036;-67
2021/05/31 02:21:15;;;;;;;58.88;24.45;;;14.30;63.00;;;;;;5048008;28;20032;-67
2021/05/31 02:23:41;;;;;;;66.75;26.40;;;14.40;63.10;;;;;;5049226;28;20422;-67
2021/05/31 02:26:12;;;;;;;72.70;26.67;;;14.40;63.10;;;;;;5050254;28;20036;-67
2021/05/31 02:28:40;;;;;;;74.25;26.75;;;14.50;63.10;;;;;;5050636;28;20040;-66
2021/05/31 02:31:07;;;;;;;73.70;27.77;;;14.50;63.10;;;;;;5049811;28;20426;-67
2021/05/31 02:33:35;;;;;;;78.97;28.23;;;14.60;63.00;;;;;;5050500;28;20036;-66
2021/05/31 02:36:01;;;;;;;71.68;26.27;;;14.60;63.00;;;;;;5053833;28;20042;-66
2021/05/31 02:38:27;;;;;;;80.80;27.15;;;14.70;63.00;;;;;;5050161;28;20024;-67
2021/05/31 02:40:57;;;;;;;80.50;27.77;;;14.70;63.00;;;;;;5047205;28;20102;-66
2021/05/31 02:43:25;;;;;;;80.10;26.50;;;14.70;63.00;;;;;;5053879;28;20095;-67
2021/05/31 02:45:51;;;;;;;122.40;27.17;;;14.70;63.00;;;;;;5048780;28;20064;-66
2021/05/31 02:48:17;;;;;;;94.47;27.00;;;14.80;63.10;;;;;;5052548;28;20494;-67
2021/05/31 02:50:44;;;;;;;93.50;28.25;;;14.80;63.00;;;;;;5048504;28;20044;-67
2021/05/31 02:53:12;;;;;;;95.40;25.20;;;14.80;63.10;;;;;;5044049;28;20093;-67
2021/05/31 02:55:40;;;;;;;94.38;26.90;;;14.80;63.10;;;;;;5049159;28;20567;-67
2021/05/31 02:58:06;;;;;;;95.25;26.45;;;14.90;63.20;;;;;;5050317;28;21756;-69
2021/05/31 03:00:32;;;;;;;120.88;26.05;;;14.90;63.20;;;;;;5044806;28;20182;-67
2021/05/31 03:02:58;;;;;;;82.65;27.13;;;14.90;63.20;;;;;;5044458;28;20497;-68
2021/05/31 03:05:29;;;;;;;101.90;28.35;;;15.00;63.20;;;;;;5045822;28;20086;-68
2021/05/31 03:07:58;;;;;;;142.10;28.98;;;15.00;63.30;;;;;;5040175;28;20039;-68
2021/05/31 03:10:25;;;;;;;109.45;29.67;;;15.00;63.30;;;;;;5046862;28;21815;-68
2021/05/31 03:12:51;;;;;;;115.40;27.73;;;15.00;63.30;;;;;;5048327;28;20114;-68
2021/05/31 03:15:17;;;;;;;111.32;27.50;;;15.00;63.30;;;;;;5047201;28;20048;-68
2021/05/31 03:17:47;;;;;;;117.47;28.95;;;15.00;63.30;;;;;;5049595;28;20040;-68
2021/05/31 03:20:13;;;;;;;181.45;29.58;;;15.00;63.40;;;;;;5045366;28;20044;-68
2021/05/31 03:22:40;;;;;;;172.65;26.38;;;15.00;63.30;;;;;;5055766;28;20129;-67
2021/05/31 03:25:07;;;;;;;148.35;25.17;;;15.00;63.20;;;;;;5051048;28;20121;-69
2021/05/31 03:27:33;;;;;;;199.57;24.90;;;15.00;63.10;;;;;;5050608;28;20048;-67
2021/05/31 03:30:04;;;;;;;108.60;21.27;;;15.00;63.00;;;;;;5044501;28;20029;-67
2021/05/31 03:32:34;;;;;;;140.60;21.65;;;14.90;63.00;;;;;;5053662;28;20086;-68
2021/05/31 03:35:00;;;;;;;90.88;20.13;;;14.90;62.90;;;;;;5047381;28;20097;-68
2021/05/31 03:37:25;;;;;;;70.80;19.77;;;14.90;62.80;;;;;;5052880;28;20037;-68
2021/05/31 03:39:51;;;;;;;81.30;21.05;;;14.80;62.70;;;;;;5043984;28;20071;-68
2021/05/31 03:42:16;;;;;;;74.15;20.38;;;14.80;62.70;;;;;;5059776;28;20056;-68
2021/05/31 03:44:42;;;;;;;80.00;19.75;;;14.70;62.80;;;;;;5049360;28;20491;-68
2021/05/31 03:47:10;;;;;;;61.25;19.08;;;14.70;62.80;;;;;;5042583;28;20540;-68
2021/05/31 03:49:38;;;;;;;66.75;19.90;;;14.70;62.70;;;;;;5060439;28;20047;-67
2021/05/31 03:52:04;;;;;;;70.90;19.40;;;14.60;62.80;;;;;;5046023;28;20603;-68
2021/05/31 03:54:29;;;;;;;58.67;18.88;;;14.60;62.80;;;;;;5048676;28;20041;-68
2021/05/31 03:56:55;;;;;;;68.00;19.05;;;14.60;62.90;;;;;;5045862;28;20036;-68
2021/05/31 03:59:22;;;;;;;61.10;19.45;;;14.60;63.00;;;;;;5044978;28;20128;-68
2021/05/31 04:01:50;;;;;;;61.90;19.27;;;14.60;62.90;;;;;;5044054;28;21721;-68
2021/05/31 04:04:19;;;;;;;59.25;18.45;;;14.60;62.80;;;;;;5048314;28;20036;-68
2021/05/31 04:12:03;;;;;;;88.47;20.60;;;14.60;62.70;;;;;;5040906;28;20048;-67
2021/05/31 04:14:29;;;;;;;87.13;21.10;;;14.50;63.30;;;;;;5045048;28;20045;-67
2021/05/31 04:16:58;;;;;;;73.47;20.45;;;14.50;63.50;;;;;;5044859;28;20044;-67
2021/05/31 04:19:28;;;;;;;75.00;20.90;;;14.50;62.70;;;;;;5045470;28;20097;-68
2021/05/31 04:21:54;;;;;;;116.40;22.55;;;14.50;62.70;;;;;;5046383;28;21789;-68
2021/05/31 04:24:22;;;;;;;58.22;21.55;;;14.60;62.70;;;;;;5047170;28;20442;-68
2021/05/31 04:26:50;;;;;;;61.67;21.27;;;14.60;62.60;;;;;;5045000;28;20148;-68
2021/05/31 04:29:16;;;;;;;50.50;20.75;;;14.60;62.70;;;;;;5044189;28;20507;-68
2021/05/31 04:31:42;;;;;;;106.45;22.63;;;14.60;62.80;;;;;;5048694;28;20035;-68
2021/05/31 04:34:11;;;;;;;66.72;21.25;;;14.60;62.60;;;;;;5045771;28;20068;-68
2021/05/31 04:36:39;;;;;;;76.40;21.88;;;14.60;62.60;;;;;;5047338;28;20032;-67
2021/05/31 04:39:10;;;;;;;87.38;22.15;;;14.70;62.70;;;;;;5041016;28;20577;-68
2021/05/31 04:41:39;;;;;;;46.75;21.80;;;14.70;62.70;;;;;;5042860;28;20047;-68
2021/05/31 04:44:09;;;;;;;59.85;22.48;;;14.80;62.60;;;;;;5044332;28;20127;-68
2021/05/31 04:46:37;;;;;;;67.60;22.65;;;14.80;62.40;;;;;;5051563;28;20045;-68
2021/05/31 04:49:03;;;;;;;53.42;22.10;;;14.80;62.40;;;;;;5045229;28;20059;-69
2021/05/31 04:51:32;;;;;;;58.05;20.75;;;14.90;62.50;;;;;;5044621;28;20509;-68
2021/05/31 04:54:00;;;;;;;71.40;22.13;;;14.90;62.50;;;;;;5044116;28;20033;-69
2021/05/31 04:56:29;;;;;;;56.00;20.90;;;14.90;62.60;;;;;;5052325;28;20433;-68
2021/05/31 04:58:54;;;;;;;50.78;23.05;;;15.00;62.60;;;;;;5050754;28;20335;-68
2021/05/31 05:01:22;;;;;;;49.72;21.17;;;15.00;62.40;;;;;;5048372;28;20036;-68
2021/05/31 05:03:50;;;;;;;59.03;22.52;;;15.00;62.30;;;;;;5056309;28;20490;-68
2021/05/31 05:06:18;;;;;;;50.08;22.13;;;15.10;62.30;;;;;;5058342;28;20083;-68
2021/05/31 05:08:46;;;;;;;46.33;22.08;;;15.10;62.30;;;;;;5053688;28;20028;-68
2021/05/31 05:11:14;;;;;;;53.72;22.50;;;15.20;62.40;;;;;;5049067;28;20241;-68
2021/05/31 05:13:40;;;;;;;53.88;23.05;;;15.30;62.40;;;;;;5048534;28;20125;-67
2021/05/31 05:16:08;;;;;;;57.72;24.42;;;15.30;62.40;;;;;;5048808;28;20375;-68
2021/05/31 05:18:41;;;;;;;55.65;22.15;;;15.40;62.40;;;;;;5046555;28;20067;-67
2021/05/31 05:21:06;;;;;;;67.50;22.20;;;15.50;62.30;;;;;;5045831;28;20039;-68
2021/05/31 05:23:34;;;;;;;61.88;23.38;;;15.60;62.20;;;;;;5050359;28;20433;-68
2021/05/31 05:26:02;;;;;;;49.38;22.95;;;15.60;62.10;;;;;;5054779;28;20032;-68
2021/05/31 05:28:27;;;;;;;90.40;24.02;;;15.70;62.10;;;;;;5060558;28;20037;-68
2021/05/31 05:30:53;;;;;;;53.67;21.52;;;15.80;61.80;;;;;;5052253;28;20036;-68
2021/05/31 05:33:19;;;;;;;62.80;24.00;;;15.80;61.60;;;;;;5057108;28;20037;-68
2021/05/31 05:35:51;;;;;;;43.70;23.15;;;15.90;61.50;;;;;;5054740;28;20045;-68
2021/05/31 05:46:02;;;;;;;35.67;21.25;;;16.40;61.30;;;;;;5058004;28;20115;-68
2021/05/31 05:48:30;;;;;;;43.05;22.63;;;16.50;61.40;;;;;;5054821;28;20044;-68
2021/05/31 05:51:07;;;;;;;38.30;20.92;;;16.70;61.50;;;;;;5047826;28;20033;-68
2021/05/31 05:53:35;;;;;;;38.53;20.85;;;16.90;60.70;;;;;;5044037;28;20033;-66
2021/05/31 05:56:01;;;;;;;40.03;21.60;;;17.00;60.00;;;;;;5046885;28;20565;-68
2021/05/31 05:58:29;;;;;;;36.80;21.15;;;17.10;59.90;;;;;;5051786;28;20306;-68
2021/05/31 06:00:59;;;;;;;34.40;19.95;;;17.20;59.40;;;;;;5048238;28;20039;-68
2021/05/31 06:03:25;;;;;;;33.22;20.50;;;17.30;58.60;;;;;;5053504;28;20157;-68
2021/05/31 06:05:53;;;;;;;33.58;20.63;;;17.20;58.40;;;;;;5050144;28;20518;-68
2021/05/31 06:08:19;;;;;;;37.85;22.05;;;17.20;58.30;;;;;;5042488;28;20029;-68
2021/05/31 06:10:44;;;;;;;38.60;22.45;;;17.20;58.90;;;;;;5054663;28;20024;-68
2021/05/31 06:13:10;;;;;;;26.73;17.92;;;17.90;61.40;;;;;;5059485;28;20037;-68
2021/05/31 06:15:38;;;;;;;23.98;15.10;;;19.70;60.00;;;;;;5045138;28;20045;-70
2021/05/31 06:18:04;;;;;;;20.98;14.73;;;21.70;56.20;;;;;;5044031;28;20532;-69
2021/05/31 06:20:30;;;;;;;19.48;13.85;;;23.70;51.70;;;;;;5050812;28;20032;-68
2021/05/31 06:22:55;;;;;;;19.92;13.52;;;25.10;47.50;;;;;;5056469;28;20032;-69
2021/05/31 06:25:23;;;;;;;20.50;14.60;;;25.80;44.90;;;;;;5054711;28;20481;-68
2021/05/31 06:27:49;;;;;;;21.05;13.38;;;25.80;43.50;;;;;;5054850;28;20524;-69
2021/05/31 06:30:15;;;;;;;20.35;14.02;;;25.80;42.80;;;;;;5053489;28;20076;-69
2021/05/31 06:32:45;;;;;;;18.83;13.40;;;26.00;42.10;;;;;;5052773;28;20039;-69
2021/05/31 06:35:11;;;;;;;18.42;13.25;;;26.70;40.70;;;;;;5057816;28;20142;-69
2021/05/31 06:37:42;;;;;;;20.55;14.10;;;27.20;38.80;;;;;;5058739;28;20036;-68
2021/05/31 06:40:13;;;;;;;19.25;13.90;;;27.40;38.30;;;;;;5056643;28;20039;-69
2021/05/31 06:42:41;;;;;;;21.42;14.10;;;27.40;37.60;;;;;;5054292;28;20177;-69
2021/05/31 06:45:11;;;;;;;19.33;13.70;;;27.00;37.70;;;;;;5056455;28;20041;-69
2021/05/31 06:47:37;;;;;;;18.40;14.00;;;26.70;37.90;;;;;;5058366;28;20517;-68
2021/05/31 06:50:05;;;;;;;20.90;13.98;;;26.60;38.00;;;;;;5056806;28;20048;-69
2021/05/31 06:52:31;;;;;;;19.73;14.60;;;26.50;38.10;;;;;;5058152;28;20041;-69
2021/05/31 06:54:57;;;;;;;19.13;13.07;;;26.20;37.80;;;;;;5052049;28;20041;-69
2021/05/31 06:57:25;;;;;;;21.92;14.15;;;25.70;38.40;;;;;;5055337;28;20105;-69
2021/05/31 06:59:52;;;;;;;20.73;14.07;;;25.00;38.50;;;;;;5047379;28;20036;-69
2021/05/31 07:02:18;;;;;;;20.70;14.43;;;24.20;39.80;;;;;;5056989;28;20169;-68
2021/05/31 07:04:43;;;;;;;22.98;14.10;;;23.40;40.90;;;;;;5046670;28;20690;-69
2021/05/31 07:07:09;;;;;;;21.75;14.50;;;22.80;42.20;;;;;;5054358;28;20444;-68
2021/05/31 07:09:35;;;;;;;22.35;14.93;;;22.30;43.50;;;;;;5049995;28;20788;-68
2021/05/31 07:12:01;;;;;;;21.40;14.38;;;22.20;44.90;;;;;;5057384;28;20048;-68
2021/05/31 07:14:33;;;;;;;21.10;14.63;;;22.50;45.50;;;;;;5060147;28;20060;-68
2021/05/31 07:17:00;;;;;;;20.02;13.93;;;23.10;44.90;;;;;;5052891;28;20176;-68
2021/05/31 07:19:27;;;;;;;15.07;12.10;;;23.80;44.40;;;;;;5053651;28;20032;-69
2021/05/31 07:21:53;;;;;;;16.75;11.13;;;25.10;43.00;;;;;;5059208;28;20060;-69
2021/05/31 07:24:22;;;;;;;17.98;11.48;;;;;;;;;;5055348;28;20689;-69
2021/05/31 07:26:48;;;;;;;14.32;10.50;;;;;;;;;;5057597;28;20075;-69
2021/05/31 07:29:14;;;;;;;11.95;10.35;;;;;;;;;;5045741;28;20087;-69
2021/05/31 07:31:40;;;;;;;14.63;11.27;;;;;;;;;;5053669;28;20048;-70
2021/05/31 07:34:06;;;;;;;15.77;10.85;;;;;;;;;;5054511;28;20033;-69
2021/05/31 07:36:32;;;;;;;15.50;10.18;;;;;;;;;;5051686;28;20052;-69
2021/05/31 07:38:58;;;;;;;12.80;8.80;;;;;;;;;;5051113;28;20502;-69
2021/05/31 07:41:24;;;;;;;14.82;9.68;;;;;;;;;;5060378;28;20064;-69
2021/05/31 07:43:53;;;;;;;12.10;9.52;;;;;;;;;;5054951;28;20447;-69
2021/05/31 07:46:19;;;;;;;10.50;8.82;;;;;;;;;;5052673;28;20032;-70
2021/05/31 07:48:46;;;;;;;11.00;8.60;;;;;;;;;;5050727;28;20028;-69
2021/05/31 07:51:18;;;;;;;13.35;8.52;;;;;;;;;;5056336;28;20045;-69
2021/05/31 07:53:51;;;;;;;11.63;7.75;;;;;;;;;;5055987;28;20020;-69
2021/05/31 07:56:17;;;;;;;10.45;7.85;;;;;;;;;;5051989;28;20656;-70
2021/05/31 07:58:46;;;;;;;8.88;6.50;;;;;;;;;;5044656;28;20037;-70
2021/05/31 08:01:14;;;;;;;10.63;7.32;;;;;;;;;;5055340;28;20056;-67
2021/05/31 08:03:41;;;;;;;8.00;6.30;;;;;;;;;;5049356;28;20413;-67
2021/05/31 08:06:07;;;;;;;7.72;5.90;;;;;;;;;;5054726;28;20047;-67
2021/05/31 08:08:35;;;;;;;8.77;5.50;;;;;;;;;;5052986;28;21991;-67
2021/05/31 08:11:03;;;;;;;9.57;5.63;;;;;;;;;;5052148;28;20040;-67
2021/05/31 08:13:32;;;;;;;6.32;4.72;;;;;;;;;;5044282;28;20039;-67
2021/05/31 08:16:00;;;;;;;5.85;4.95;;;;;;;;;;5051444;28;20025;-67
2021/05/31 08:18:26;;;;;;;6.28;4.57;;;;;;;;;;5043151;28;20509;-68
2021/05/31 08:20:52;;;;;;;6.95;4.25;;;;;;;;;;5052723;28;20033;-67
2021/05/31 08:23:18;;;;;;;3.65;3.35;;;;;;;;;;5054080;28;20153;-67
2021/05/31 08:25:44;;;;;;;4.18;3.55;;;;;;;;;;5045654;28;20082;-68
2021/05/31 08:28:13;;;;;;;4.55;3.42;;;;;;;;;;5047344;28;20036;-67
2021/05/31 08:30:41;;;;;;;4.47;3.05;;;;;;;;;;5047045;28;20762;-67
2021/05/31 08:33:08;;;;;;;4.28;2.92;;;;;;;;;;5048714;28;20524;-68
2021/05/31 08:35:36;;;;;;;4.70;3.03;;;;;;;;;;5047062;28;20230;-67
2021/05/31 08:38:03;;;;;;;3.20;2.53;;;;;;;;;;5055068;28;20056;-67
2021/05/31 08:40:28;;;;;;;4.82;2.90;;;;;;;;;;5046904;28;20028;-67
2021/05/31 08:42:59;;;;;;;4.85;3.25;;;;;;;;;;5055144;28;20517;-67
2021/05/31 08:45:28;;;;;;;4.00;3.20;;;;;;;;;;5058660;28;20464;-67
2021/05/31 08:47:54;;;;;;;3.95;2.97;;;;;;;;;;5057889;28;20423;-67
2021/05/31 08:50:21;;;;;;;5.53;3.33;;;;;;;;;;5056301;28;20453;-67
2021/05/31 08:52:48;;;;;;;4.68;2.65;;;;;;;;;;5045517;28;20501;-67
2021/05/31 08:55:15;;;;;;;3.90;2.58;;;;;;;;;;5058218;28;20082;-67
2021/05/31 08:57:44;;;;;;;4.18;2.63;;;;;;;;;;5058215;28;20403;-67
2021/05/31 09:00:13;;;;;;;4.68;2.90;;;;;;;;;;5051362;28;20079;-67
2021/05/31 09:02:40;;;;;;;4.18;2.80;;;;;;;;;;5067741;28;20033;-68
2021/05/31 09:05:06;;;;;;;6.15;2.40;;;;;;;;;;5048879;28;20068;-68
2021/05/31 09:07:35;;;;;;;6.47;2.47;;;;;;;;;;5042035;28;20510;-71
2021/05/31 09:10:01;;;;;;;5.40;2.15;;;;;;;;;;5052601;28;20188;-68
2021/05/31 09:12:37;;;;;;;2.58;2.15;;;;;;;;;;5044628;28;20057;-66
2021/05/31 09:15:10;;;;;;;4.18;2.63;;;;;;;;;;5057248;28;20044;-68
2021/05/31 09:17:40;;;;;;;3.83;2.38;;;;;;;;;;5048709;28;20128;-67
2021/05/31 09:20:10;;;;;;;5.13;2.50;;;;;;;;;;5048273;27;20037;-66
2021/05/31 09:22:55;;;;;;;5.57;2.40;;;;;;;;;;5053681;28;20056;-70
2021/05/31 09:25:29;;;;;;;3.65;2.30;;;;;;;;;;5050070;28;20041;-69
2021/05/31 09:27:56;;;;;;;7.82;2.60;;;;;;;;;;5042759;28;20085;-69
2021/05/31 09:30:33;;;;;;;3.60;2.03;;;;;;;;;;5045857;28;20133;-68
2021/05/31 09:33:03;;;;;;;4.95;2.63;;;;;;;;;;5055716;28;20383;-68
2021/05/31 09:35:32;;;;;;;9.93;2.70;;;;;;;;;;5010859;28;20040;-70
2021/05/31 09:38:00;;;;;;;5.05;2.42;;;;;;;;;;5051753;28;20480;-68
2021/05/31 09:40:26;;;;;;;4.55;2.80;;;;;;;;;;5051736;28;20040;-67
2021/05/31 09:42:54;;;;;;;5.03;2.67;;;;;;;;;;5057608;28;20524;-67
2021/05/31 09:45:20;;;;;;;7.05;2.20;;;;;;;;;;5047790;28;20044;-67
2021/05/31 09:47:46;;;;;;;3.90;2.58;;;;;;;;;;5048405;28;20104;-66
2021/05/31 09:50:23;;;;;;;7.88;3.50;;;;;;;;;;5048752;28;20084;-67
2021/05/31 09:53:01;;;;;;;6.60;2.72;;;;;;;;;;5068084;28;20037;-67
2021/05/31 09:55:31;;;;;;;3.92;2.38;;;;;;;;;;5049120;28;20038;-67
2021/05/31 09:57:57;;;;;;;6.55;2.90;;;;;;;;;;5047569;28;20040;-67
2021/05/31 10:00:28;;;;;;;5.20;2.30;;;;;;;;;;5053894;28;20481;-66
2021/05/31 10:03:07;;;;;;;4.75;2.15;;;;;;;;;;5053962;28;20112;-67
2021/05/31 10:05:41;;;;;;;5.28;2.40;;;;;;;;;;5046973;28;20037;-67
2021/05/31 10:10:43;;;;;;;5.90;2.35;;;;;;;;;;5055240;28;20040;-66
2021/05/31 10:13:11;;;;;;;2.65;2.45;;;;;;;;;;5052649;28;20084;-66
2021/05/31 10:15:40;;;;;;;5.43;2.80;;;;;;;;;;5053634;28;20545;-66
2021/05/31 10:18:09;;;;;;;6.13;3.05;;;;;;;;;;5037851;28;20037;-66
2021/05/31 10:20:38;;;;;;;6.00;3.00;;;;;;;;;;5053722;28;20073;-66
2021/05/31 10:23:08;;;;;;;9.10;3.03;;;;;;;;;;5052109;28;20048;-67
2021/05/31 10:25:37;;;;;;;5.30;2.97;;;;;;;;;;5057471;28;20531;-65
2021/05/31 10:28:08;;;;;;;3.78;2.80;;;;;;;;;;5046947;28;20113;-67
2021/05/31 10:30:44;;;;;;;5.95;3.08;;;;;;;;;;5052587;28;20037;-65
2021/05/31 10:33:18;;;;;;;5.20;3.05;;;27.00;40.40;;;;;;5050253;28;20517;-66
2021/05/31 10:35:45;;;;;;;6.25;3.30;;;39.10;19.20;;;;;;5058720;28;20456;-67
2021/05/31 10:38:17;;;;;;;7.13;3.13;;;38.40;19.60;;;;;;5045683;28;20121;-67
2021/05/31 10:40:53;;;;;;;5.13;3.33;;;37.80;20.00;;;;;;5052785;28;20143;-66
2021/05/31 10:43:21;;;;;;;7.90;3.90;;;37.40;20.50;;;;;;5054673;28;20043;-66
2021/05/31 10:45:48;;;;;;;6.88;3.17;;;37.10;20.60;;;;;;5051282;28;20069;-66
2021/05/31 10:48:19;;;;;;;4.70;2.78;;;36.60;22.10;;;;;;5046205;28;20091;-67
2021/05/31 10:50:50;;;;;;;5.82;3.50;;;36.30;22.80;;;;;;5052979;28;20124;-66
2021/05/31 10:56:02;;;;;;;5.80;3.40;;;35.90;22.70;;;;;;5054150;28;20494;-66
2021/05/31 10:58:40;;;;;;;6.35;2.63;;;35.00;22.30;;;;;;5046697;28;20426;-66
2021/05/31 11:01:13;;;;;;;4.85;3.28;;;34.50;23.80;;;;;;5047882;28;20509;-67
2021/05/31 11:03:55;;;;;;;4.53;2.58;;;34.20;23.50;;;;;;5056997;28;20037;-66
2021/05/31 11:06:23;;;;;;;7.38;3.33;;;33.90;23.30;;;;;;5066308;28;20033;-66
2021/05/31 11:08:54;;;;;;;3.75;2.63;;;33.70;24.30;;;;;;5046925;28;20051;-68
2021/05/31 11:11:31;;;;;;;5.10;2.78;;;33.50;24.00;;;;;;5048610;28;20045;-66
2021/05/31 11:13:59;;;;;;;4.95;3.30;;;33.30;23.70;;;;;;5052272;28;20499;-66
2021/05/31 11:16:26;;;;;;;6.68;3.17;;;33.20;23.90;;;;;;5056934;28;20122;-66
2021/05/31 11:19:08;;;;;;;4.68;2.80;;;33.00;23.80;;;;;;5046706;28;20032;-67
2021/05/31 11:21:41;;;;;;;7.10;4.32;;;32.90;23.90;;;;;;5060938;28;20040;-64
2021/05/31 11:24:18;;;;;;;5.68;3.28;;;32.90;24.40;;;;;;5062292;28;20044;-66
2021/05/31 11:26:49;;;;;;;4.22;3.03;;;32.90;24.80;;;;;;5057223;28;20055;-66
2021/05/31 11:29:17;;;;;;;4.30;2.72;;;32.80;24.30;;;;;;5042605;28;20994;-66
2021/05/31 11:31:44;;;;;;;4.97;2.60;;;32.80;25.10;;;;;;5057582;28;20593;-66
2021/05/31 11:34:13;;;;;;;3.97;2.72;;;;;;;;;;5057257;28;20033;-66
2021/05/31 11:36:42;;;;;;;5.40;3.10;;;;;;;;;;5053211;28;20398;-66
2021/05/31 11:39:14;;;;;;;8.18;3.10;;;;;;;;;;5055103;28;20035;-66
2021/05/31 11:41:42;;;;;;;5.20;2.90;;;;;;;;;;5059340;28;20043;-66
2021/05/31 11:44:18;;;;;;;5.10;2.95;;;;;;;;;;5052245;28;20115;-66
2021/05/31 11:46:53;;;;;;;4.55;2.60;;;32.70;24.90;;;;;;5059234;28;20036;-67
2021/05/31 11:49:22;;;;;;;4.88;3.05;;;32.50;25.90;;;;;;5058440;28;20041;-65
2021/05/31 11:51:56;;;;;;;11.07;2.97;;;32.40;25.30;;;;;;5055398;28;20056;-64
2021/05/31 11:54:30;;;;;;;5.57;3.15;;;32.40;25.00;;;;;;5057767;28;20047;-68
2021/05/31 11:57:00;;;;;;;5.80;2.97;;;32.30;24.90;;;;;;5053816;28;20474;-67
2021/05/31 11:59:34;;;;;;;3.78;2.88;;;32.20;25.10;;;;;;5050754;28;20045;-69
2021/05/31 12:02:00;;;;;;;4.82;2.80;;;32.20;25.20;;;;;;5058590;28;20086;-70
2021/05/31 12:04:28;;;;;;;5.75;2.83;;;32.20;25.20;;;;;;5050484;28;20039;-68
2021/05/31 12:06:58;;;;;;;5.97;2.92;;;32.20;24.70;;;;;;5053410;28;20505;-68
2021/05/31 12:09:24;;;;;;;3.72;2.67;;;32.30;25.30;;;;;;5052061;28;20250;-68
2021/05/31 12:11:53;;;;;;;4.43;3.08;;;32.30;24.50;;;;;;5046093;28;20059;-68
2021/05/31 12:14:22;;;;;;;5.45;3.00;;;32.10;24.40;;;;;;5049017;28;20041;-68
2021/05/31 12:17:03;;;;;;;4.47;2.90;;;32.00;25.00;;;;;;5042615;28;20063;-69
2021/05/31 12:19:32;;;;;;;6.60;2.83;;;31.80;25.70;;;;;;5045001;28;20121;-68
2021/05/31 12:22:04;;;;;;;4.70;2.58;;;31.70;25.90;;;;;;5045543;28;20047;-68
2021/05/31 12:24:32;;;;;;;5.28;2.88;;;31.70;25.10;;;;;;5060842;28;20034;-69
2021/05/31 12:27:00;;;;;;;5.10;3.08;;;31.70;25.00;;;;;;5060200;28;20044;-68
2021/05/31 12:29:40;;;;;;;5.72;3.17;;;31.70;25.20;;;;;;5047097;28;20213;-69
2021/05/31 12:32:09;;;;;;;5.95;2.72;;;31.70;25.60;;;;;;5039414;28;20045;-69
2021/05/31 12:34:38;;;;;;;8.68;2.90;;;31.70;25.40;;;;;;5054435;28;20525;-68
2021/05/31 12:37:09;;;;;;;5.32;2.90;;;31.70;25.80;;;;;;5052729;28;20125;-69
2021/05/31 12:39:39;;;;;;;3.67;2.47;;;31.70;25.50;;;;;;5040162;28;20041;-69
2021/05/31 12:42:13;;;;;;;3.60;2.88;;;31.70;25.70;;;;;;5053826;28;20056;-68
2021/05/31 12:44:40;;;;;;;6.70;2.70;;;31.70;25.80;;;;;;5045471;28;20059;-68
2021/05/31 12:47:10;;;;;;;6.13;3.20;;;31.70;25.00;;;;;;5049226;28;20780;-68
2021/05/31 12:49:46;;;;;;;4.85;2.80;;;31.60;24.90;;;;;;5044943;28;20036;-68
2021/05/31 12:52:21;;;;;;;5.63;2.85;;;31.60;25.20;;;;;;5050420;28;20033;-69
2021/05/31 12:54:57;;;;;;;5.68;2.80;;;31.60;25.30;;;;;;5056108;28;20079;-70
2021/05/31 12:57:35;;;;;;;4.25;3.08;;;31.60;25.20;;;;;;5049104;28;20044;-70
2021/05/31 13:00:03;;;;;;;3.88;2.72;;;31.60;25.40;;;;;;5065444;28;20409;-69
2021/05/31 13:02:32;;;;;;;4.90;2.92;;;31.60;25.20;;;;;;5050727;28;20418;-68
2021/05/31 13:05:02;;;;;;;4.07;2.75;;;31.60;25.20;;;;;;5050197;28;20157;-68
2021/05/31 13:07:32;;;;;;;4.63;2.92;;;31.60;26.00;;;;;;5050133;28;20521;-71
2021/05/31 13:10:22;;;;;;;3.92;2.65;;;31.70;25.90;;;;;;5043669;28;20082;-68
2021/05/31 13:13:20;;;;;;;5.90;2.65;;;31.80;25.80;;;;;;5049636;28;20708;-68
2021/05/31 13:15:54;;;;;;;6.03;3.10;;;31.90;25.70;;;;;;5044242;28;20048;-68
2021/05/31 13:18:31;;;;;;;6.60;2.70;;;31.90;26.20;;;;;;5046913;28;20131;-70
2021/05/31 13:21:21;;;;;;;4.95;2.67;;;31.90;25.70;;;;;;5055217;28;20032;-68
2021/05/31 13:23:49;;;;;;;6.25;2.90;;;31.80;26.00;;;;;;5052056;28;20486;-68
2021/05/31 13:26:17;;;;;;;4.50;2.90;;;31.80;26.00;;;;;;5048481;28;20047;-68
2021/05/31 13:28:44;;;;;;;4.05;3.15;;;31.80;26.00;;;;;;5048140;28;20635;-69
2021/05/31 13:31:22;;;;;;;4.95;2.65;;;31.80;25.80;;;;;;5048662;28;20048;-69